Terminal Aerodrome Forecast
Issued by NWS Albany, NY

Home | Current Version | Previous Version | Text Only | Print | Product List | Glossary On
Versions: 1 2 3 4 5 6 7 8 9 10 11 12 13 14 15 16 17 18 19 20 21 22 23 24 25 26
000
FTUS41 KALY 171400 AAC
TAFPOU
TAF AMD
KPOU 171433Z 1715/1812 VRB03KT P6SM FEW005
     FM171500 27006KT P6SM FEW060
     FM172300 VRB03KT P6SM SCT050
     FM180900 00000KT 5SM BR FEW002 SCT200=

USA.gov is the U.S. government's official web portal to all federal, state and local government web resources and services.